createdAt,value
2022-10-17T00:01:30.159Z,12.94
2022-10-17T00:03:59.040Z,12.94
2022-10-17T00:06:28.112Z,12.94
2022-10-17T00:08:56.923Z,12.91
2022-10-17T00:11:27.511Z,12.84
2022-10-17T00:13:57.584Z,12.80
2022-10-17T00:16:28.433Z,12.75
2022-10-17T00:18:58.225Z,12.67
2022-10-17T00:21:28.013Z,12.62
2022-10-17T00:23:57.329Z,12.56
2022-10-17T00:26:28.543Z,12.50
2022-10-17T00:28:57.676Z,12.47
2022-10-17T00:31:27.343Z,12.42
2022-10-17T00:33:56.161Z,12.41
2022-10-17T00:36:27.529Z,12.40
2022-10-17T00:38:58.939Z,12.37
2022-10-17T00:41:32.587Z,12.33
2022-10-17T00:44:03.572Z,12.30
2022-10-17T00:46:34.804Z,12.27
2022-10-17T00:49:07.744Z,12.25
2022-10-17T00:51:42.906Z,12.24
2022-10-17T00:54:15.007Z,12.23
2022-10-17T00:56:46.434Z,12.23
2022-10-17T00:59:16.789Z,12.20
2022-10-17T01:01:54.741Z,12.17
2022-10-17T01:04:24.072Z,12.15
2022-10-17T01:06:53.158Z,12.12
2022-10-17T01:09:22.534Z,12.08
2022-10-17T01:12:00.860Z,12.06
2022-10-17T01:14:38.710Z,12.02
2022-10-17T01:17:15.584Z,12.00
2022-10-17T01:20:05.239Z,11.96
2022-10-17T01:22:42.123Z,11.93
2022-10-17T01:25:29.440Z,11.90
2022-10-17T01:28:21.343Z,11.86
2022-10-17T01:31:06.047Z,11.83
2022-10-17T01:33:53.785Z,11.76
2022-10-17T01:36:35.571Z,11.73
2022-10-17T01:39:14.574Z,11.71
2022-10-17T01:41:49.818Z,11.68
2022-10-17T01:44:22.306Z,11.65
2022-10-17T01:46:57.835Z,11.62
2022-10-17T01:49:32.791Z,11.60
2022-10-17T01:52:06.953Z,11.59
2022-10-17T01:54:42.556Z,11.58
2022-10-17T01:57:17.992Z,11.56
2022-10-17T01:59:51.197Z,11.52
2022-10-17T02:02:22.660Z,11.50
2022-10-17T02:04:53.991Z,11.47
2022-10-17T02:07:22.937Z,11.45
2022-10-17T02:09:52.075Z,11.45
2022-10-17T02:12:41.366Z,11.46
2022-10-17T02:15:29.612Z,11.46
2022-10-17T02:18:15.021Z,11.51
2022-10-17T02:20:53.367Z,11.53
2022-10-17T02:23:31.119Z,11.53
2022-10-17T02:26:08.191Z,11.49
2022-10-17T02:28:45.727Z,11.47
2022-10-17T02:31:18.756Z,11.47
2022-10-17T02:33:55.407Z,11.48
2022-10-17T02:36:28.729Z,11.45
2022-10-17T02:38:59.776Z,11.41
2022-10-17T02:44:06.194Z,11.36
2022-10-17T02:46:36.810Z,11.33
2022-10-17T02:49:17.275Z,11.33
2022-10-17T02:51:51.423Z,11.32
2022-10-17T02:54:25.490Z,11.30
2022-10-17T02:57:01.001Z,11.31
2022-10-17T03:02:07.834Z,11.25
2022-10-17T03:04:38.554Z,11.25
2022-10-17T03:07:07.699Z,11.25
2022-10-17T03:09:36.530Z,11.24
2022-10-17T03:12:06.490Z,11.24
2022-10-17T03:14:36.499Z,11.22
2022-10-17T03:17:06.114Z,11.19
2022-10-17T03:19:34.962Z,11.21
2022-10-17T03:22:05.472Z,11.19
2022-10-17T03:24:36.047Z,11.18
2022-10-17T03:27:05.335Z,11.20
2022-10-17T03:29:34.261Z,11.20
2022-10-17T03:32:05.354Z,11.19
2022-10-17T03:34:34.237Z,11.18
2022-10-17T03:37:05.249Z,11.20
2022-10-17T03:39:36.050Z,11.23
2022-10-17T03:42:05.629Z,11.25
2022-10-17T03:44:34.549Z,11.27
2022-10-17T03:47:03.652Z,11.28
2022-10-17T03:49:32.531Z,11.27
2022-10-17T03:52:01.643Z,11.27
2022-10-17T03:54:32.051Z,11.30
2022-10-17T03:57:01.683Z,11.33
2022-10-17T03:59:30.579Z,11.35
2022-10-17T04:02:07.460Z,11.35
2022-10-17T04:04:36.339Z,11.35
2022-10-17T04:07:06.027Z,11.36
2022-10-17T04:09:39.392Z,11.36
2022-10-17T04:12:18.794Z,11.35
2022-10-17T04:14:47.755Z,11.36
2022-10-17T04:17:17.814Z,11.37
2022-10-17T04:19:47.175Z,11.36
2022-10-17T04:22:18.734Z,11.35
2022-10-17T04:24:50.369Z,11.34
2022-10-17T04:27:38.137Z,11.30
2022-10-17T04:30:09.372Z,11.26
2022-10-17T04:32:39.759Z,11.23
2022-10-17T04:35:28.914Z,11.23
2022-10-17T04:38:05.173Z,11.22
2022-10-17T04:40:35.392Z,11.20
2022-10-17T04:43:04.661Z,11.19
2022-10-17T04:45:38.095Z,11.13
2022-10-17T04:48:08.096Z,11.10
2022-10-17T04:50:36.944Z,11.07
2022-10-17T04:53:29.932Z,11.05
2022-10-17T04:56:00.385Z,11.11
2022-10-17T04:58:30.840Z,11.12
2022-10-17T05:00:59.667Z,11.15
2022-10-17T05:03:31.409Z,11.17
2022-10-17T05:06:03.988Z,11.20
2022-10-17T05:08:33.177Z,11.21
2022-10-17T05:11:04.107Z,11.21
2022-10-17T05:13:33.316Z,11.22
2022-10-17T05:16:03.027Z,11.22
2022-10-17T05:18:32.241Z,11.21
2022-10-17T05:21:01.089Z,11.24
2022-10-17T05:23:31.604Z,11.25
2022-10-17T05:26:02.624Z,11.27
2022-10-17T05:28:31.809Z,11.28
2022-10-17T05:31:05.120Z,11.29
2022-10-17T05:33:34.614Z,11.26
2022-10-17T05:36:03.601Z,11.24
2022-10-17T05:38:32.723Z,11.25
2022-10-17T05:41:04.839Z,11.24
2022-10-17T05:43:35.958Z,11.22
2022-10-17T05:46:06.227Z,11.23
2022-10-17T05:48:36.384Z,11.26
2022-10-17T05:51:07.957Z,11.30
2022-10-17T05:53:40.655Z,11.34
2022-10-17T05:56:15.450Z,11.39
2022-10-17T05:58:50.368Z,11.44
2022-10-17T06:01:33.943Z,11.48
2022-10-17T06:04:03.083Z,11.52
2022-10-17T06:06:32.074Z,11.55
2022-10-17T06:09:01.122Z,11.57
2022-10-17T06:11:36.281Z,11.59
2022-10-17T06:14:05.655Z,11.60
2022-10-17T06:16:34.631Z,11.64
2022-10-17T06:19:03.785Z,11.67
2022-10-17T06:21:36.492Z,11.69
2022-10-17T06:24:11.620Z,11.75
2022-10-17T06:26:44.825Z,11.77
2022-10-17T06:29:16.386Z,11.79
2022-10-17T06:31:49.542Z,11.81
2022-10-17T06:34:18.867Z,11.82
2022-10-17T06:36:48.447Z,11.85
2022-10-17T06:39:19.887Z,11.90
2022-10-17T06:42:00.903Z,11.96
2022-10-17T06:44:46.924Z,12.03
2022-10-17T06:47:34.152Z,12.14
2022-10-17T06:50:09.800Z,12.18
2022-10-17T06:52:45.173Z,12.24
2022-10-17T06:55:35.469Z,12.30
2022-10-17T06:58:28.666Z,12.33
2022-10-17T07:03:43.960Z,12.40
2022-10-17T07:06:14.216Z,12.45
2022-10-17T07:08:45.534Z,12.49
2022-10-17T07:11:19.507Z,12.54
2022-10-17T07:13:52.060Z,12.58
2022-10-17T07:16:22.684Z,12.63
2022-10-17T07:18:59.317Z,12.68
2022-10-17T07:21:28.512Z,12.71
2022-10-17T07:23:58.106Z,12.74
2022-10-17T07:26:28.094Z,12.78
2022-10-17T07:28:58.497Z,12.82
2022-10-17T07:31:37.867Z,12.85
2022-10-17T07:34:06.755Z,12.89
2022-10-17T07:36:35.898Z,12.91
2022-10-17T07:39:07.006Z,12.95
2022-10-17T07:41:38.167Z,12.98
2022-10-17T07:44:08.568Z,13.02
2022-10-17T07:46:44.109Z,13.04
2022-10-17T07:49:13.102Z,13.05
2022-10-17T07:51:43.288Z,13.05
2022-10-17T07:54:12.241Z,13.08
2022-10-17T07:56:41.314Z,13.11
2022-10-17T07:59:11.570Z,13.15
2022-10-17T08:01:40.809Z,13.17
2022-10-17T08:04:09.725Z,13.22
2022-10-17T08:06:38.849Z,13.22
2022-10-17T08:09:07.759Z,13.24
2022-10-17T08:11:37.264Z,13.28
2022-10-17T08:14:06.111Z,13.33
2022-10-17T08:16:36.714Z,13.40
2022-10-17T08:19:06.027Z,13.46
2022-10-17T08:21:35.325Z,13.52
2022-10-17T08:24:04.152Z,13.58
2022-10-17T08:26:33.262Z,13.62
2022-10-17T08:29:02.177Z,13.68
2022-10-17T08:31:31.328Z,13.71
2022-10-17T08:34:01.578Z,13.75
2022-10-17T08:36:30.681Z,13.80
2022-10-17T08:38:59.564Z,13.82
2022-10-17T08:41:45.096Z,13.85
2022-10-17T08:44:23.031Z,13.88
2022-10-17T08:46:57.107Z,13.91
2022-10-17T08:49:35.495Z,13.93
2022-10-17T08:52:12.040Z,13.95
2022-10-17T08:54:43.293Z,13.97
2022-10-17T08:57:15.431Z,13.99
2022-10-17T08:59:45.901Z,14.02
2022-10-17T09:02:31.301Z,14.06
2022-10-17T09:05:26.702Z,14.08
2022-10-17T09:08:13.708Z,14.12
2022-10-17T09:10:53.661Z,14.16
2022-10-17T09:13:34.031Z,14.16
2022-10-17T09:16:24.502Z,14.23
2022-10-17T09:19:02.876Z,14.27
2022-10-17T09:21:41.734Z,14.32
2022-10-17T09:24:18.511Z,14.35
2022-10-17T09:26:47.882Z,14.41
2022-10-17T09:29:21.310Z,14.47
2022-10-17T09:34:32.093Z,14.55
2022-10-17T09:37:03.568Z,14.61
2022-10-17T09:39:33.101Z,14.67
2022-10-17T09:42:03.187Z,14.75
2022-10-17T09:44:34.440Z,14.85
2022-10-17T09:47:27.389Z,14.92
2022-10-17T09:49:56.723Z,14.99
2022-10-17T09:52:32.595Z,15.09
2022-10-17T09:55:06.153Z,15.20
2022-10-17T09:57:56.548Z,15.32
2022-10-17T10:00:27.788Z,15.38
2022-10-17T10:03:18.101Z,15.40
2022-10-17T10:06:02.335Z,15.41
2022-10-17T10:08:35.345Z,15.47
2022-10-17T10:11:07.918Z,15.48
2022-10-17T10:13:38.485Z,15.50
2022-10-17T10:16:32.345Z,15.52
2022-10-17T10:19:04.694Z,15.56
2022-10-17T10:21:51.017Z,15.61
2022-10-17T10:24:21.820Z,15.64
2022-10-17T10:26:53.486Z,15.67
2022-10-17T10:29:30.963Z,15.71
2022-10-17T10:32:10.268Z,15.81
2022-10-17T10:34:50.522Z,15.87
2022-10-17T10:37:22.394Z,15.97
2022-10-17T10:39:55.753Z,16.15
2022-10-17T10:42:29.738Z,16.24
2022-10-17T10:45:03.743Z,16.30
2022-10-17T10:47:33.821Z,16.37
2022-10-17T10:50:22.109Z,16.58
2022-10-17T10:53:02.127Z,16.65
2022-10-17T10:55:37.593Z,16.77
2022-10-17T10:58:17.319Z,17.30
2022-10-17T11:00:47.225Z,17.93
2022-10-17T11:03:18.609Z,17.83
2022-10-17T11:05:52.456Z,17.76
2022-10-17T11:08:28.492Z,17.74
2022-10-17T11:11:18.118Z,17.54
2022-10-17T11:13:54.079Z,17.38
2022-10-17T11:16:33.041Z,17.33
2022-10-17T11:19:13.692Z,17.24
2022-10-17T11:21:48.120Z,17.19
2022-10-17T11:24:23.846Z,17.24
2022-10-17T11:26:59.867Z,17.48
2022-10-17T11:29:32.169Z,17.63
2022-10-17T11:32:05.021Z,17.68
2022-10-17T11:34:40.483Z,17.68
2022-10-17T11:37:17.314Z,17.88
2022-10-17T11:39:52.578Z,17.97
2022-10-17T11:42:28.656Z,18.13
2022-10-17T11:45:03.098Z,18.26
2022-10-17T11:47:45.004Z,18.38
2022-10-17T11:53:17.011Z,18.37
2022-10-17T11:55:47.287Z,18.53
2022-10-17T11:58:30.954Z,18.66
2022-10-17T12:01:11.165Z,18.74
2022-10-17T12:04:03.578Z,18.81
2022-10-17T12:06:49.312Z,18.84
2022-10-17T12:09:28.011Z,18.92
2022-10-17T12:11:58.979Z,18.99
2022-10-17T12:14:41.558Z,18.91
2022-10-17T12:17:32.832Z,18.86
2022-10-17T12:20:28.402Z,18.80
2022-10-17T12:23:00.948Z,18.71
2022-10-17T12:25:33.681Z,18.66
2022-10-17T12:28:17.038Z,18.60
2022-10-17T12:30:59.662Z,18.53
2022-10-17T12:33:40.011Z,18.50
2022-10-17T12:36:32.608Z,18.59
2022-10-17T12:39:49.284Z,18.58
2022-10-17T12:42:54.828Z,18.71
2022-10-17T12:45:49.585Z,18.82
2022-10-17T12:48:54.926Z,18.83
2022-10-17T12:51:40.735Z,18.80
2022-10-17T12:54:14.010Z,18.73
2022-10-17T12:56:46.319Z,18.66
2022-10-17T12:59:17.880Z,18.54
2022-10-17T13:01:49.843Z,18.47
2022-10-17T13:04:20.391Z,18.45
2022-10-17T13:06:54.187Z,18.43
2022-10-17T13:09:29.782Z,18.37
2022-10-17T13:12:02.638Z,18.32
2022-10-17T13:14:32.952Z,18.33
2022-10-17T13:17:04.032Z,18.29
2022-10-17T13:19:44.601Z,18.26
2022-10-17T13:22:19.229Z,18.26
2022-10-17T13:24:49.014Z,18.24
2022-10-17T13:27:27.799Z,18.25
2022-10-17T13:29:57.722Z,18.27
2022-10-17T13:32:27.438Z,18.25
2022-10-17T13:35:11.245Z,18.26
2022-10-17T13:37:43.825Z,18.27
2022-10-17T13:40:40.777Z,18.26
2022-10-17T13:43:16.264Z,18.25
2022-10-17T13:45:50.787Z,18.26
2022-10-17T13:48:22.939Z,18.29
2022-10-17T13:50:59.123Z,18.37
2022-10-17T13:53:35.451Z,18.41
2022-10-17T13:56:26.906Z,18.47
2022-10-17T13:58:57.956Z,18.52
2022-10-17T14:01:28.681Z,18.55
2022-10-17T14:04:08.485Z,18.57
2022-10-17T14:06:46.212Z,18.54
2022-10-17T14:09:24.867Z,18.57
2022-10-17T14:12:02.978Z,18.59
2022-10-17T14:14:46.409Z,18.57
2022-10-17T14:17:26.484Z,18.56
2022-10-17T14:20:14.056Z,18.52
2022-10-17T14:22:50.521Z,18.51
2022-10-17T14:25:35.299Z,18.49
2022-10-17T14:28:15.234Z,18.49
2022-10-17T14:31:01.434Z,18.45
2022-10-17T14:33:33.830Z,18.42
2022-10-17T14:36:06.315Z,18.40
2022-10-17T14:38:36.032Z,18.41
2022-10-17T14:41:41.456Z,18.39
2022-10-17T14:44:06.640Z,18.37
2022-10-17T14:46:37.769Z,18.39
2022-10-17T14:49:15.237Z,18.39
2022-10-17T14:52:15.075Z,18.40
2022-10-17T14:54:46.413Z,18.37
2022-10-17T14:57:23.497Z,18.37
2022-10-17T14:59:55.711Z,18.36
2022-10-17T15:02:28.597Z,18.33
2022-10-17T15:04:57.689Z,18.33
2022-10-17T15:07:26.838Z,18.32
2022-10-17T15:09:55.849Z,18.31
2022-10-17T15:12:27.437Z,18.28
2022-10-17T15:15:25.998Z,18.26
2022-10-17T15:18:02.684Z,18.22
2022-10-17T15:20:42.608Z,18.21
2022-10-17T15:23:36.650Z,18.17
2022-10-17T15:26:40.676Z,18.14
2022-10-17T15:29:29.826Z,18.10
2022-10-17T15:31:58.676Z,18.09
2022-10-17T15:34:28.430Z,18.06
2022-10-17T15:37:08.131Z,18.05
2022-10-17T15:39:38.276Z,18.04
2022-10-17T15:42:10.444Z,18.03
2022-10-17T15:44:44.131Z,18.01
2022-10-17T15:47:28.781Z,17.97
2022-10-17T15:49:58.602Z,17.97
2022-10-17T15:52:29.970Z,17.94
2022-10-17T15:55:02.410Z,17.92
2022-10-17T15:57:37.995Z,17.90
2022-10-17T16:00:17.045Z,17.88
2022-10-17T16:02:46.787Z,17.87
2022-10-17T16:05:18.574Z,17.84
2022-10-17T16:07:49.909Z,17.84
2022-10-17T16:10:19.379Z,17.82
2022-10-17T16:12:49.907Z,17.78
2022-10-17T16:15:23.376Z,17.76
2022-10-17T16:18:10.046Z,17.74
2022-10-17T16:20:50.275Z,17.73
2022-10-17T16:23:19.193Z,17.70
2022-10-17T16:25:48.265Z,17.69
2022-10-17T16:28:17.057Z,17.67
2022-10-17T16:30:47.561Z,17.64
2022-10-17T16:33:16.364Z,17.62
2022-10-17T16:35:46.691Z,17.61
2022-10-17T16:38:15.342Z,17.57
2022-10-17T16:40:44.453Z,17.56
2022-10-17T16:43:14.292Z,17.54
2022-10-17T16:45:43.195Z,17.50
2022-10-17T16:48:13.395Z,17.49
2022-10-17T16:50:42.607Z,17.46
2022-10-17T16:53:11.438Z,17.44
2022-10-17T16:55:40.531Z,17.44
2022-10-17T16:58:09.373Z,17.43
2022-10-17T17:00:40.788Z,17.41
2022-10-17T17:03:09.678Z,17.42
2022-10-17T17:05:40.103Z,17.41
2022-10-17T17:08:11.812Z,17.40
2022-10-17T17:10:46.821Z,17.39
2022-10-17T17:13:15.722Z,17.36
2022-10-17T17:18:19.470Z,17.34
2022-10-17T17:20:49.957Z,17.32
2022-10-17T17:23:18.759Z,17.30
2022-10-17T17:25:47.755Z,17.28
2022-10-17T17:28:16.577Z,17.25
2022-10-17T17:30:45.692Z,17.23
2022-10-17T17:33:14.544Z,17.24
2022-10-17T17:35:43.509Z,17.20
2022-10-17T17:38:13.960Z,17.17
2022-10-17T17:40:50.602Z,17.15
2022-10-17T17:43:20.236Z,17.15
2022-10-17T17:45:49.770Z,17.15
2022-10-17T17:48:18.754Z,17.16
2022-10-17T17:50:48.016Z,17.15
2022-10-17T17:53:18.926Z,17.16
2022-10-17T17:55:48.031Z,17.16
2022-10-17T17:58:16.919Z,17.16
2022-10-17T18:00:46.015Z,17.14
2022-10-17T18:03:14.950Z,17.15
2022-10-17T18:05:43.963Z,17.15
2022-10-17T18:08:12.859Z,17.15
2022-10-17T18:10:47.979Z,17.14
2022-10-17T18:13:17.275Z,17.18
2022-10-17T18:15:46.712Z,17.18
2022-10-17T18:18:15.579Z,17.18
2022-10-17T18:20:45.238Z,17.17
2022-10-17T18:23:14.158Z,17.19
2022-10-17T18:25:44.529Z,17.21
2022-10-17T18:28:13.199Z,17.19
2022-10-17T18:30:42.323Z,17.18
2022-10-17T18:33:11.152Z,17.20
2022-10-17T18:35:40.199Z,17.23
2022-10-17T18:38:09.075Z,17.23
2022-10-17T18:40:38.441Z,17.23
2022-10-17T18:43:08.801Z,17.24
2022-10-17T18:45:37.883Z,17.24
2022-10-17T18:48:07.516Z,17.26
2022-10-17T18:50:36.730Z,17.26
2022-10-17T18:53:05.563Z,17.25
2022-10-17T18:55:34.634Z,17.27
2022-10-17T18:58:03.673Z,17.26
2022-10-17T19:00:34.181Z,17.28
2022-10-17T19:03:04.226Z,17.28
2022-10-17T19:05:34.768Z,17.30
2022-10-17T19:08:03.667Z,17.34
2022-10-17T19:10:34.715Z,17.33
2022-10-17T19:13:04.115Z,17.34
2022-10-17T19:15:34.588Z,17.34
2022-10-17T19:18:03.484Z,17.34
2022-10-17T19:20:32.504Z,17.33
2022-10-17T19:23:01.446Z,17.35
2022-10-17T19:25:30.712Z,17.37
2022-10-17T19:27:59.785Z,17.36
2022-10-17T19:30:29.079Z,17.37
2022-10-17T19:32:59.454Z,17.38
2022-10-17T19:35:28.533Z,17.40
2022-10-17T19:37:57.610Z,17.40
2022-10-17T19:40:26.752Z,17.42
2022-10-17T19:42:55.873Z,17.43
2022-10-17T19:45:24.970Z,17.44
2022-10-17T19:47:53.938Z,17.45
2022-10-17T19:50:24.347Z,17.47
2022-10-17T19:52:53.330Z,17.48
2022-10-17T19:55:22.422Z,17.51
2022-10-17T19:57:51.501Z,17.52
2022-10-17T20:00:20.808Z,17.52
2022-10-17T20:02:49.706Z,17.52
2022-10-17T20:05:21.650Z,17.56
2022-10-17T20:07:53.854Z,17.55
2022-10-17T20:10:23.488Z,17.56
2022-10-17T20:12:52.339Z,17.57
2022-10-17T20:15:21.439Z,17.60
2022-10-17T20:17:50.297Z,17.58
2022-10-17T20:20:19.792Z,17.59
2022-10-17T20:22:48.801Z,17.59
2022-10-17T20:25:19.475Z,17.61
2022-10-17T20:27:48.490Z,17.60
2022-10-17T20:30:17.572Z,17.60
2022-10-17T20:32:46.396Z,17.61
2022-10-17T20:35:15.495Z,17.63
2022-10-17T20:37:44.364Z,17.62
2022-10-17T20:40:34.180Z,17.63
2022-10-17T20:43:04.571Z,17.61
2022-10-17T20:45:50.422Z,17.61
2022-10-17T20:48:20.667Z,17.59
2022-10-17T20:50:49.997Z,17.61
2022-10-17T20:56:11.592Z,17.59
2022-10-17T20:58:41.836Z,17.61
2022-10-17T21:01:11.840Z,17.60
2022-10-17T21:03:44.029Z,17.63
2022-10-17T21:06:16.476Z,17.60
2022-10-17T21:08:46.132Z,17.59
2022-10-17T21:11:16.996Z,17.58
2022-10-17T21:13:48.459Z,17.60
2022-10-17T21:16:19.050Z,17.59
2022-10-17T21:18:49.311Z,17.57
2022-10-17T21:21:20.906Z,17.58
2022-10-17T21:23:51.847Z,17.58
2022-10-17T21:26:21.547Z,17.56
2022-10-17T21:28:52.345Z,17.55
2022-10-17T21:31:23.533Z,17.53
2022-10-17T21:33:53.996Z,17.54
2022-10-17T21:36:24.096Z,17.52
2022-10-17T21:38:54.644Z,17.51
2022-10-17T21:41:27.600Z,17.50
2022-10-17T21:44:00.955Z,17.48
2022-10-17T21:46:31.020Z,17.47
2022-10-17T21:49:01.249Z,17.46
2022-10-17T21:51:30.728Z,17.44
2022-10-17T21:53:59.900Z,17.41
2022-10-17T21:56:30.793Z,17.42
2022-10-17T21:59:01.802Z,17.42
2022-10-17T22:01:34.000Z,17.41
2022-10-17T22:04:05.579Z,17.39
2022-10-17T22:06:40.174Z,17.38
2022-10-17T22:09:15.229Z,17.37
2022-10-17T22:11:46.463Z,17.36
2022-10-17T22:14:18.563Z,17.36
2022-10-17T22:16:48.997Z,17.34
2022-10-17T22:19:20.615Z,17.34
2022-10-17T22:21:49.896Z,17.31
2022-10-17T22:26:50.752Z,17.30
2022-10-17T22:29:21.184Z,17.29
2022-10-17T22:31:50.220Z,17.27
2022-10-17T22:34:20.164Z,17.25
2022-10-17T22:36:49.117Z,17.23
2022-10-17T22:39:18.127Z,17.20
2022-10-17T22:41:47.174Z,17.16
2022-10-17T22:44:16.020Z,17.20
2022-10-17T22:46:46.410Z,17.23
2022-10-17T22:49:15.239Z,17.24
2022-10-17T22:51:44.253Z,17.24
2022-10-17T22:54:13.085Z,17.25
2022-10-17T22:56:42.154Z,17.31
2022-10-17T22:59:10.930Z,17.30
2022-10-17T23:01:40.050Z,17.30
2022-10-17T23:04:10.363Z,17.33
2022-10-17T23:06:39.499Z,17.35
2022-10-17T23:09:08.349Z,17.33
2022-10-17T23:11:37.339Z,17.30
2022-10-17T23:14:06.159Z,17.30
2022-10-17T23:16:35.298Z,17.29
2022-10-17T23:19:04.185Z,17.28
2022-10-17T23:21:34.590Z,17.25
2022-10-17T23:24:03.437Z,17.24
2022-10-17T23:26:32.490Z,17.26
2022-10-17T23:29:01.354Z,17.25
2022-10-17T23:31:30.508Z,17.25
2022-10-17T23:34:00.352Z,17.24
2022-10-17T23:36:29.230Z,17.21
2022-10-17T23:38:59.491Z,17.21
2022-10-17T23:41:28.795Z,17.18
2022-10-17T23:43:57.685Z,17.22
2022-10-17T23:46:26.749Z,17.23
2022-10-17T23:48:55.662Z,17.25
2022-10-17T23:51:24.896Z,17.18
2022-10-17T23:53:53.788Z,17.22
2022-10-17T23:56:24.193Z,17.25
2022-10-17T23:58:53.053Z,17.22
